sensor_id;sensor_type;location;lat;lon;timestamp;P1;durP1;ratioP1;P2;durP2;ratioP2
21802;SDS011;18591;47.080;22.214;2022-09-21T00:01:42;0.98;;;0.90;;
21802;SDS011;18591;47.080;22.214;2022-09-21T00:03:46;2.17;;;0.95;;
21802;SDS011;18591;47.080;22.214;2022-09-21T00:05:48;2.38;;;1.13;;
21802;SDS011;18591;47.080;22.214;2022-09-21T00:07:51;1.17;;;1.05;;
21802;SDS011;18591;47.080;22.214;2022-09-21T00:09:53;3.63;;;1.00;;
21802;SDS011;18591;47.080;22.214;2022-09-21T00:11:55;1.52;;;0.90;;
21802;SDS011;18591;47.080;22.214;2022-09-21T00:14:00;1.40;;;1.00;;
21802;SDS011;18591;47.080;22.214;2022-09-21T00:16:08;1.17;;;0.88;;
21802;SDS011;18591;47.080;22.214;2022-09-21T00:18:10;0.90;;;0.90;;
21802;SDS011;18591;47.080;22.214;2022-09-21T00:20:13;3.60;;;1.00;;
21802;SDS011;18591;47.080;22.214;2022-09-21T00:22:16;3.33;;;1.00;;
21802;SDS011;18591;47.080;22.214;2022-09-21T00:24:19;2.08;;;0.70;;
21802;SDS011;18591;47.080;22.214;2022-09-21T00:26:24;1.10;;;1.00;;
21802;SDS011;18591;47.080;22.214;2022-09-21T00:28:27;1.50;;;1.00;;
21802;SDS011;18591;47.080;22.214;2022-09-21T00:30:30;0.93;;;0.75;;
21802;SDS011;18591;47.080;22.214;2022-09-21T00:32:33;2.33;;;1.00;;
21802;SDS011;18591;47.080;22.214;2022-09-21T00:34:37;5.13;;;1.63;;
21802;SDS011;18591;47.080;22.214;2022-09-21T00:36:39;2.67;;;0.80;;
21802;SDS011;18591;47.080;22.214;2022-09-21T00:38:42;1.08;;;1.08;;
21802;SDS011;18591;47.080;22.214;2022-09-21T00:40:48;0.75;;;0.75;;
21802;SDS011;18591;47.080;22.214;2022-09-21T00:42:50;0.90;;;0.60;;
21802;SDS011;18591;47.080;22.214;2022-09-21T00:44:52;0.80;;;0.80;;
21802;SDS011;18591;47.080;22.214;2022-09-21T00:46:55;1.05;;;0.82;;
21802;SDS011;18591;47.080;22.214;2022-09-21T00:49:03;1.60;;;1.02;;
21802;SDS011;18591;47.080;22.214;2022-09-21T00:51:06;1.33;;;0.88;;
21802;SDS011;18591;47.080;22.214;2022-09-21T00:53:09;1.38;;;0.73;;
21802;SDS011;18591;47.080;22.214;2022-09-21T00:55:16;1.42;;;0.68;;
21802;SDS011;18591;47.080;22.214;2022-09-21T00:57:31;0.70;;;0.70;;
21802;SDS011;18591;47.080;22.214;2022-09-21T00:59:36;1.40;;;0.93;;
21802;SDS011;18591;47.080;22.214;2022-09-21T01:01:40;0.70;;;0.70;;
21802;SDS011;18591;47.080;22.214;2022-09-21T01:03:44;0.50;;;0.50;;
21802;SDS011;18591;47.080;22.214;2022-09-21T01:05:47;2.47;;;0.80;;
21802;SDS011;18591;47.080;22.214;2022-09-21T01:07:50;1.65;;;1.05;;
21802;SDS011;18591;47.080;22.214;2022-09-21T01:09:53;2.20;;;0.80;;
21802;SDS011;18591;47.080;22.214;2022-09-21T01:17:13;0.55;;;0.55;;
21802;SDS011;18591;47.080;22.214;2022-09-21T01:19:38;1.80;;;0.75;;
21802;SDS011;18591;47.080;22.214;2022-09-21T01:27:08;0.82;;;0.50;;
21802;SDS011;18591;47.080;22.214;2022-09-21T01:31:39;4.15;;;3.10;;
21802;SDS011;18591;47.080;22.214;2022-09-21T01:33:47;5.15;;;2.40;;
21802;SDS011;18591;47.080;22.214;2022-09-21T01:35:58;6.50;;;2.60;;
21802;SDS011;18591;47.080;22.214;2022-09-21T01:38:12;4.88;;;3.10;;
21802;SDS011;18591;47.080;22.214;2022-09-21T01:40:20;8.73;;;3.20;;
21802;SDS011;18591;47.080;22.214;2022-09-21T01:42:31;5.78;;;3.75;;
21802;SDS011;18591;47.080;22.214;2022-09-21T01:44:35;8.55;;;3.88;;
21802;SDS011;18591;47.080;22.214;2022-09-21T01:46:40;6.72;;;4.32;;
21802;SDS011;18591;47.080;22.214;2022-09-21T01:48:45;8.50;;;4.80;;
21802;SDS011;18591;47.080;22.214;2022-09-21T01:50:52;6.18;;;3.22;;
21802;SDS011;18591;47.080;22.214;2022-09-21T01:53:17;3.72;;;2.42;;
21802;SDS011;18591;47.080;22.214;2022-09-21T01:55:33;5.00;;;2.10;;
21802;SDS011;18591;47.080;22.214;2022-09-21T01:59:50;2.72;;;1.40;;
21802;SDS011;18591;47.080;22.214;2022-09-21T02:01:56;1.05;;;0.95;;
21802;SDS011;18591;47.080;22.214;2022-09-21T02:04:03;1.48;;;0.90;;
21802;SDS011;18591;47.080;22.214;2022-09-21T02:06:10;4.45;;;1.20;;
21802;SDS011;18591;47.080;22.214;2022-09-21T02:08:14;1.90;;;0.80;;
21802;SDS011;18591;47.080;22.214;2022-09-21T02:10:18;0.65;;;0.63;;
21802;SDS011;18591;47.080;22.214;2022-09-21T02:12:33;3.03;;;0.90;;
21802;SDS011;18591;47.080;22.214;2022-09-21T02:14:35;1.67;;;0.60;;
21802;SDS011;18591;47.080;22.214;2022-09-21T02:17:44;1.48;;;0.80;;
21802;SDS011;18591;47.080;22.214;2022-09-21T02:21:56;2.15;;;1.17;;
21802;SDS011;18591;47.080;22.214;2022-09-21T02:24:13;2.30;;;0.65;;
21802;SDS011;18591;47.080;22.214;2022-09-21T02:26:39;3.42;;;0.98;;
21802;SDS011;18591;47.080;22.214;2022-09-21T02:28:52;2.55;;;0.85;;
21802;SDS011;18591;47.080;22.214;2022-09-21T02:31:09;3.95;;;1.08;;
21802;SDS011;18591;47.080;22.214;2022-09-21T02:37:52;2.70;;;2.50;;
21802;SDS011;18591;47.080;22.214;2022-09-21T02:40:05;3.38;;;3.08;;
21802;SDS011;18591;47.080;22.214;2022-09-21T02:42:26;3.22;;;2.10;;
21802;SDS011;18591;47.080;22.214;2022-09-21T02:44:37;4.18;;;2.28;;
21802;SDS011;18591;47.080;22.214;2022-09-21T02:49:24;5.13;;;3.85;;
21802;SDS011;18591;47.080;22.214;2022-09-21T02:51:33;5.43;;;3.97;;
21802;SDS011;18591;47.080;22.214;2022-09-21T02:53:41;5.63;;;3.97;;
21802;SDS011;18591;47.080;22.214;2022-09-21T02:55:45;4.65;;;3.65;;
21802;SDS011;18591;47.080;22.214;2022-09-21T02:57:56;2.88;;;2.30;;
21802;SDS011;18591;47.080;22.214;2022-09-21T02:59:59;3.50;;;1.60;;
21802;SDS011;18591;47.080;22.214;2022-09-21T03:02:02;1.60;;;1.50;;
21802;SDS011;18591;47.080;22.214;2022-09-21T03:04:06;1.83;;;1.55;;
21802;SDS011;18591;47.080;22.214;2022-09-21T03:06:10;1.55;;;1.45;;
21802;SDS011;18591;47.080;22.214;2022-09-21T03:08:12;4.00;;;1.65;;
21802;SDS011;18591;47.080;22.214;2022-09-21T03:10:18;4.15;;;2.03;;
21802;SDS011;18591;47.080;22.214;2022-09-21T03:12:21;4.25;;;2.17;;
21802;SDS011;18591;47.080;22.214;2022-09-21T03:14:23;13.68;;;4.50;;
21802;SDS011;18591;47.080;22.214;2022-09-21T03:16:25;16.10;;;6.28;;
21802;SDS011;18591;47.080;22.214;2022-09-21T03:18:27;14.82;;;6.18;;
21802;SDS011;18591;47.080;22.214;2022-09-21T03:20:31;12.55;;;5.57;;
21802;SDS011;18591;47.080;22.214;2022-09-21T03:22:34;18.25;;;8.15;;
21802;SDS011;18591;47.080;22.214;2022-09-21T03:24:36;13.65;;;7.45;;
21802;SDS011;18591;47.080;22.214;2022-09-21T03:26:47;10.02;;;4.57;;
21802;SDS011;18591;47.080;22.214;2022-09-21T03:28:49;11.50;;;3.55;;
21802;SDS011;18591;47.080;22.214;2022-09-21T03:30:55;4.68;;;2.35;;
21802;SDS011;18591;47.080;22.214;2022-09-21T03:33:00;6.30;;;2.00;;
21802;SDS011;18591;47.080;22.214;2022-09-21T03:35:02;1.38;;;1.27;;
21802;SDS011;18591;47.080;22.214;2022-09-21T03:37:06;1.40;;;1.30;;
21802;SDS011;18591;47.080;22.214;2022-09-21T03:39:11;1.45;;;1.35;;
21802;SDS011;18591;47.080;22.214;2022-09-21T03:41:13;1.05;;;0.93;;
21802;SDS011;18591;47.080;22.214;2022-09-21T03:43:16;0.90;;;0.85;;
21802;SDS011;18591;47.080;22.214;2022-09-21T03:45:19;2.42;;;0.82;;
21802;SDS011;18591;47.080;22.214;2022-09-21T03:47:27;1.48;;;1.00;;
21802;SDS011;18591;47.080;22.214;2022-09-21T03:49:30;3.22;;;1.08;;
21802;SDS011;18591;47.080;22.214;2022-09-21T03:51:32;0.88;;;0.88;;
21802;SDS011;18591;47.080;22.214;2022-09-21T03:53:34;2.47;;;1.10;;
21802;SDS011;18591;47.080;22.214;2022-09-21T03:55:37;1.00;;;1.00;;
21802;SDS011;18591;47.080;22.214;2022-09-21T03:57:39;1.52;;;1.00;;
21802;SDS011;18591;47.080;22.214;2022-09-21T03:59:41;1.20;;;1.10;;
21802;SDS011;18591;47.080;22.214;2022-09-21T04:01:44;2.80;;;1.10;;
21802;SDS011;18591;47.080;22.214;2022-09-21T04:03:46;3.85;;;1.10;;
21802;SDS011;18591;47.080;22.214;2022-09-21T04:05:48;2.08;;;1.20;;
21802;SDS011;18591;47.080;22.214;2022-09-21T04:07:51;1.98;;;1.70;;
21802;SDS011;18591;47.080;22.214;2022-09-21T04:09:56;8.68;;;5.05;;
21802;SDS011;18591;47.080;22.214;2022-09-21T04:11:58;13.35;;;7.75;;
21802;SDS011;18591;47.080;22.214;2022-09-21T04:14:00;14.68;;;8.98;;
21802;SDS011;18591;47.080;22.214;2022-09-21T04:16:03;35.97;;;20.25;;
21802;SDS011;18591;47.080;22.214;2022-09-21T04:18:05;30.30;;;17.13;;
21802;SDS011;18591;47.080;22.214;2022-09-21T04:20:09;53.60;;;23.63;;
21802;SDS011;18591;47.080;22.214;2022-09-21T04:22:11;57.30;;;26.38;;
21802;SDS011;18591;47.080;22.214;2022-09-21T04:24:15;40.58;;;19.50;;
21802;SDS011;18591;47.080;22.214;2022-09-21T04:26:21;39.38;;;17.88;;
21802;SDS011;18591;47.080;22.214;2022-09-21T04:28:25;23.92;;;12.68;;
21802;SDS011;18591;47.080;22.214;2022-09-21T04:30:27;18.63;;;10.43;;
21802;SDS011;18591;47.080;22.214;2022-09-21T04:32:35;15.97;;;9.00;;
21802;SDS011;18591;47.080;22.214;2022-09-21T04:34:37;13.20;;;7.88;;
21802;SDS011;18591;47.080;22.214;2022-09-21T04:36:40;12.00;;;7.38;;
21802;SDS011;18591;47.080;22.214;2022-09-21T04:38:42;10.80;;;6.47;;
21802;SDS011;18591;47.080;22.214;2022-09-21T04:40:44;12.93;;;8.17;;
21802;SDS011;18591;47.080;22.214;2022-09-21T04:42:55;15.70;;;8.27;;
21802;SDS011;18591;47.080;22.214;2022-09-21T04:44:58;12.37;;;7.40;;
21802;SDS011;18591;47.080;22.214;2022-09-21T04:47:01;11.38;;;6.78;;
21802;SDS011;18591;47.080;22.214;2022-09-21T04:49:03;10.63;;;5.97;;
21802;SDS011;18591;47.080;22.214;2022-09-21T04:51:05;7.97;;;5.10;;
21802;SDS011;18591;47.080;22.214;2022-09-21T04:53:09;6.53;;;5.13;;
21802;SDS011;18591;47.080;22.214;2022-09-21T04:55:11;9.35;;;7.32;;
21802;SDS011;18591;47.080;22.214;2022-09-21T04:57:13;20.00;;;11.65;;
21802;SDS011;18591;47.080;22.214;2022-09-21T04:59:15;20.77;;;11.87;;
21802;SDS011;18591;47.080;22.214;2022-09-21T05:01:17;26.85;;;14.40;;
21802;SDS011;18591;47.080;22.214;2022-09-21T05:03:23;26.65;;;15.30;;
21802;SDS011;18591;47.080;22.214;2022-09-21T05:05:26;19.65;;;12.43;;
21802;SDS011;18591;47.080;22.214;2022-09-21T05:07:28;20.83;;;11.35;;
21802;SDS011;18591;47.080;22.214;2022-09-21T05:09:30;22.23;;;14.57;;
21802;SDS011;18591;47.080;22.214;2022-09-21T05:11:51;25.58;;;14.57;;
21802;SDS011;18591;47.080;22.214;2022-09-21T05:13:53;15.57;;;10.95;;
21802;SDS011;18591;47.080;22.214;2022-09-21T05:15:55;26.90;;;18.27;;
21802;SDS011;18591;47.080;22.214;2022-09-21T05:17:57;25.17;;;15.70;;
21802;SDS011;18591;47.080;22.214;2022-09-21T05:19:59;26.88;;;15.88;;
21802;SDS011;18591;47.080;22.214;2022-09-21T05:22:02;16.52;;;10.52;;
21802;SDS011;18591;47.080;22.214;2022-09-21T05:24:04;8.27;;;6.43;;
21802;SDS011;18591;47.080;22.214;2022-09-21T05:26:06;8.05;;;5.57;;
21802;SDS011;18591;47.080;22.214;2022-09-21T05:28:08;24.98;;;13.45;;
21802;SDS011;18591;47.080;22.214;2022-09-21T05:30:11;19.85;;;12.70;;
21802;SDS011;18591;47.080;22.214;2022-09-21T05:32:24;16.33;;;11.75;;
21802;SDS011;18591;47.080;22.214;2022-09-21T05:36:50;16.10;;;11.88;;
21802;SDS011;18591;47.080;22.214;2022-09-21T05:39:04;16.55;;;10.05;;
21802;SDS011;18591;47.080;22.214;2022-09-21T05:41:07;14.55;;;9.75;;
21802;SDS011;18591;47.080;22.214;2022-09-21T05:43:10;11.73;;;8.07;;
21802;SDS011;18591;47.080;22.214;2022-09-21T05:45:14;8.90;;;6.00;;
21802;SDS011;18591;47.080;22.214;2022-09-21T05:47:52;7.82;;;5.43;;
21802;SDS011;18591;47.080;22.214;2022-09-21T05:54:58;9.85;;;4.47;;
21802;SDS011;18591;47.080;22.214;2022-09-21T05:57:15;6.20;;;4.18;;
21802;SDS011;18591;47.080;22.214;2022-09-21T05:59:41;4.65;;;3.80;;
21802;SDS011;18591;47.080;22.214;2022-09-21T06:04:07;3.50;;;3.20;;
21802;SDS011;18591;47.080;22.214;2022-09-21T06:06:11;4.72;;;3.10;;
21802;SDS011;18591;47.080;22.214;2022-09-21T06:08:13;2.97;;;2.67;;
21802;SDS011;18591;47.080;22.214;2022-09-21T06:10:16;6.50;;;2.63;;
21802;SDS011;18591;47.080;22.214;2022-09-21T06:12:18;4.28;;;3.25;;
21802;SDS011;18591;47.080;22.214;2022-09-21T06:14:20;7.10;;;3.35;;
21802;SDS011;18591;47.080;22.214;2022-09-21T06:16:26;5.53;;;3.15;;
21802;SDS011;18591;47.080;22.214;2022-09-21T06:18:28;5.10;;;2.90;;
21802;SDS011;18591;47.080;22.214;2022-09-21T06:20:30;2.97;;;2.67;;
21802;SDS011;18591;47.080;22.214;2022-09-21T06:22:33;2.30;;;2.10;;
21802;SDS011;18591;47.080;22.214;2022-09-21T06:24:36;3.22;;;2.70;;
21802;SDS011;18591;47.080;22.214;2022-09-21T06:26:38;2.50;;;2.30;;
21802;SDS011;18591;47.080;22.214;2022-09-21T06:28:40;10.77;;;6.50;;
21802;SDS011;18591;47.080;22.214;2022-09-21T06:30:43;18.02;;;10.52;;
21802;SDS011;18591;47.080;22.214;2022-09-21T06:32:51;15.57;;;9.23;;
21802;SDS011;18591;47.080;22.214;2022-09-21T06:34:53;9.18;;;6.05;;
21802;SDS011;18591;47.080;22.214;2022-09-21T06:36:57;7.53;;;5.38;;
21802;SDS011;18591;47.080;22.214;2022-09-21T06:39:00;10.15;;;4.95;;
21802;SDS011;18591;47.080;22.214;2022-09-21T06:41:02;54.08;;;29.48;;
21802;SDS011;18591;47.080;22.214;2022-09-21T06:43:05;56.47;;;33.10;;
21802;SDS011;18591;47.080;22.214;2022-09-21T06:45:07;34.72;;;21.60;;
21802;SDS011;18591;47.080;22.214;2022-09-21T06:47:09;19.60;;;12.95;;
21802;SDS011;18591;47.080;22.214;2022-09-21T06:49:12;21.55;;;13.90;;
21802;SDS011;18591;47.080;22.214;2022-09-21T06:51:14;17.48;;;11.38;;
21802;SDS011;18591;47.080;22.214;2022-09-21T06:53:16;13.63;;;8.77;;
21802;SDS011;18591;47.080;22.214;2022-09-21T06:55:19;10.27;;;6.90;;
21802;SDS011;18591;47.080;22.214;2022-09-21T06:57:21;8.63;;;5.65;;
21802;SDS011;18591;47.080;22.214;2022-09-21T06:59:24;8.90;;;6.47;;
21802;SDS011;18591;47.080;22.214;2022-09-21T07:01:26;12.43;;;7.00;;
21802;SDS011;18591;47.080;22.214;2022-09-21T07:03:28;13.68;;;8.38;;
21802;SDS011;18591;47.080;22.214;2022-09-21T07:05:34;12.35;;;9.48;;
21802;SDS011;18591;47.080;22.214;2022-09-21T07:07:36;11.10;;;8.10;;
21802;SDS011;18591;47.080;22.214;2022-09-21T07:09:39;8.80;;;6.72;;
21802;SDS011;18591;47.080;22.214;2022-09-21T07:12:02;11.15;;;7.90;;
21802;SDS011;18591;47.080;22.214;2022-09-21T07:14:04;13.80;;;8.73;;
21802;SDS011;18591;47.080;22.214;2022-09-21T07:16:07;9.07;;;7.32;;
21802;SDS011;18591;47.080;22.214;2022-09-21T07:18:11;8.77;;;6.13;;
21802;SDS011;18591;47.080;22.214;2022-09-21T07:20:14;6.43;;;5.15;;
21802;SDS011;18591;47.080;22.214;2022-09-21T07:22:16;7.13;;;5.35;;
21802;SDS011;18591;47.080;22.214;2022-09-21T07:24:19;6.03;;;4.78;;
21802;SDS011;18591;47.080;22.214;2022-09-21T07:26:24;9.20;;;5.40;;
21802;SDS011;18591;47.080;22.214;2022-09-21T07:28:26;8.52;;;5.20;;
21802;SDS011;18591;47.080;22.214;2022-09-21T07:30:28;6.53;;;5.00;;
21802;SDS011;18591;47.080;22.214;2022-09-21T07:32:30;8.05;;;5.15;;
21802;SDS011;18591;47.080;22.214;2022-09-21T07:34:33;10.10;;;5.88;;
21802;SDS011;18591;47.080;22.214;2022-09-21T07:36:37;18.83;;;9.27;;
21802;SDS011;18591;47.080;22.214;2022-09-21T07:38:41;11.10;;;6.85;;
21802;SDS011;18591;47.080;22.214;2022-09-21T07:40:45;9.60;;;5.65;;
21802;SDS011;18591;47.080;22.214;2022-09-21T07:42:47;6.07;;;4.80;;
21802;SDS011;18591;47.080;22.214;2022-09-21T07:44:49;4.57;;;3.90;;
21802;SDS011;18591;47.080;22.214;2022-09-21T07:47:04;4.38;;;3.97;;
21802;SDS011;18591;47.080;22.214;2022-09-21T07:49:06;4.82;;;4.22;;
21802;SDS011;18591;47.080;22.214;2022-09-21T07:51:10;4.25;;;3.80;;
21802;SDS011;18591;47.080;22.214;2022-09-21T07:53:14;4.72;;;4.30;;
21802;SDS011;18591;47.080;22.214;2022-09-21T07:55:17;6.45;;;4.03;;
21802;SDS011;18591;47.080;22.214;2022-09-21T07:57:20;4.25;;;3.83;;
21802;SDS011;18591;47.080;22.214;2022-09-21T07:59:41;5.00;;;4.47;;
21802;SDS011;18591;47.080;22.214;2022-09-21T08:01:43;4.32;;;3.92;;
21802;SDS011;18591;47.080;22.214;2022-09-21T08:03:52;6.00;;;4.63;;
21802;SDS011;18591;47.080;22.214;2022-09-21T08:05:57;4.28;;;3.88;;
21802;SDS011;18591;47.080;22.214;2022-09-21T08:08:00;4.75;;;4.25;;
21802;SDS011;18591;47.080;22.214;2022-09-21T08:10:03;4.97;;;4.10;;
21802;SDS011;18591;47.080;22.214;2022-09-21T08:12:08;10.25;;;7.57;;
21802;SDS011;18591;47.080;22.214;2022-09-21T08:14:14;8.68;;;6.57;;
21802;SDS011;18591;47.080;22.214;2022-09-21T08:16:27;8.77;;;6.03;;
21802;SDS011;18591;47.080;22.214;2022-09-21T08:18:31;7.60;;;6.13;;
21802;SDS011;18591;47.080;22.214;2022-09-21T08:20:37;7.88;;;6.35;;
21802;SDS011;18591;47.080;22.214;2022-09-21T08:22:40;8.77;;;7.15;;
21802;SDS011;18591;47.080;22.214;2022-09-21T08:24:43;10.43;;;9.02;;
21802;SDS011;18591;47.080;22.214;2022-09-21T08:26:46;9.50;;;7.53;;
21802;SDS011;18591;47.080;22.214;2022-09-21T08:29:00;8.75;;;7.00;;
21802;SDS011;18591;47.080;22.214;2022-09-21T08:31:04;7.43;;;5.10;;
21802;SDS011;18591;47.080;22.214;2022-09-21T08:33:10;5.20;;;4.70;;
21802;SDS011;18591;47.080;22.214;2022-09-21T08:35:13;4.85;;;4.15;;
21802;SDS011;18591;47.080;22.214;2022-09-21T08:37:19;4.93;;;4.45;;
21802;SDS011;18591;47.080;22.214;2022-09-21T08:39:22;6.22;;;4.88;;
21802;SDS011;18591;47.080;22.214;2022-09-21T08:44:06;9.18;;;6.10;;
21802;SDS011;18591;47.080;22.214;2022-09-21T08:46:19;5.93;;;4.63;;
21802;SDS011;18591;47.080;22.214;2022-09-21T08:48:28;5.95;;;5.20;;
21802;SDS011;18591;47.080;22.214;2022-09-21T08:50:41;9.82;;;6.78;;
21802;SDS011;18591;47.080;22.214;2022-09-21T08:52:50;5.85;;;5.28;;
21802;SDS011;18591;47.080;22.214;2022-09-21T08:57:28;6.10;;;5.35;;
21802;SDS011;18591;47.080;22.214;2022-09-21T08:59:32;6.40;;;5.47;;
21802;SDS011;18591;47.080;22.214;2022-09-21T09:01:56;7.63;;;6.18;;
21802;SDS011;18591;47.080;22.214;2022-09-21T09:04:24;7.20;;;6.22;;
21802;SDS011;18591;47.080;22.214;2022-09-21T09:06:55;6.38;;;5.50;;
21802;SDS011;18591;47.080;22.214;2022-09-21T09:11:49;5.55;;;4.43;;
21802;SDS011;18591;47.080;22.214;2022-09-21T09:14:33;5.70;;;4.50;;
21802;SDS011;18591;47.080;22.214;2022-09-21T09:16:48;5.43;;;4.45;;
21802;SDS011;18591;47.080;22.214;2022-09-21T09:21:42;12.63;;;8.52;;
21802;SDS011;18591;47.080;22.214;2022-09-21T09:23:47;10.15;;;6.63;;
21802;SDS011;18591;47.080;22.214;2022-09-21T09:26:00;6.53;;;5.18;;
21802;SDS011;18591;47.080;22.214;2022-09-21T09:28:26;22.35;;;13.52;;
21802;SDS011;18591;47.080;22.214;2022-09-21T09:30:33;23.20;;;15.32;;
21802;SDS011;18591;47.080;22.214;2022-09-21T09:34:39;6.72;;;5.38;;
21802;SDS011;18591;47.080;22.214;2022-09-21T09:36:47;5.38;;;4.38;;
21802;SDS011;18591;47.080;22.214;2022-09-21T09:39:04;5.22;;;3.78;;
21802;SDS011;18591;47.080;22.214;2022-09-21T09:41:24;4.40;;;4.00;;
21802;SDS011;18591;47.080;22.214;2022-09-21T09:48:59;6.78;;;4.07;;
21802;SDS011;18591;47.080;22.214;2022-09-21T09:51:19;6.03;;;4.10;;
21802;SDS011;18591;47.080;22.214;2022-09-21T09:53:23;4.25;;;3.55;;
21802;SDS011;18591;47.080;22.214;2022-09-21T09:55:27;6.38;;;4.18;;
21802;SDS011;18591;47.080;22.214;2022-09-21T09:57:44;6.03;;;4.95;;
21802;SDS011;18591;47.080;22.214;2022-09-21T09:59:49;6.35;;;5.65;;
21802;SDS011;18591;47.080;22.214;2022-09-21T10:02:03;6.65;;;4.28;;
21802;SDS011;18591;47.080;22.214;2022-09-21T10:04:08;4.57;;;4.03;;
21802;SDS011;18591;47.080;22.214;2022-09-21T10:06:15;3.88;;;3.58;;
21802;SDS011;18591;47.080;22.214;2022-09-21T10:10:39;4.10;;;3.70;;
21802;SDS011;18591;47.080;22.214;2022-09-21T10:12:43;4.35;;;3.55;;
21802;SDS011;18591;47.080;22.214;2022-09-21T10:14:51;6.88;;;4.90;;
21802;SDS011;18591;47.080;22.214;2022-09-21T10:16:55;7.68;;;5.55;;
21802;SDS011;18591;47.080;22.214;2022-09-21T10:19:12;8.40;;;7.60;;
21802;SDS011;18591;47.080;22.214;2022-09-21T10:23:20;10.30;;;6.70;;
21802;SDS011;18591;47.080;22.214;2022-09-21T10:25:23;4.57;;;3.60;;
21802;SDS011;18591;47.080;22.214;2022-09-21T10:27:26;3.65;;;3.35;;
21802;SDS011;18591;47.080;22.214;2022-09-21T10:31:59;5.22;;;3.22;;
21802;SDS011;18591;47.080;22.214;2022-09-21T10:34:22;10.18;;;5.25;;
21802;SDS011;18591;47.080;22.214;2022-09-21T10:38:32;6.72;;;3.80;;
21802;SDS011;18591;47.080;22.214;2022-09-21T10:40:37;9.70;;;5.40;;
21802;SDS011;18591;47.080;22.214;2022-09-21T10:42:41;8.02;;;5.30;;
21802;SDS011;18591;47.080;22.214;2022-09-21T10:44:46;5.13;;;4.07;;
21802;SDS011;18591;47.080;22.214;2022-09-21T10:46:52;5.63;;;3.63;;
21802;SDS011;18591;47.080;22.214;2022-09-21T10:49:01;3.65;;;3.20;;
21802;SDS011;18591;47.080;22.214;2022-09-21T10:51:03;5.60;;;3.40;;
21802;SDS011;18591;47.080;22.214;2022-09-21T10:55:18;7.15;;;4.70;;
21802;SDS011;18591;47.080;22.214;2022-09-21T10:57:25;13.68;;;8.30;;
21802;SDS011;18591;47.080;22.214;2022-09-21T10:59:32;31.58;;;15.48;;
21802;SDS011;18591;47.080;22.214;2022-09-21T11:01:41;33.78;;;16.67;;
21802;SDS011;18591;47.080;22.214;2022-09-21T11:03:56;45.22;;;19.77;;
21802;SDS011;18591;47.080;22.214;2022-09-21T11:06:28;45.70;;;22.25;;
21802;SDS011;18591;47.080;22.214;2022-09-21T11:08:38;60.72;;;27.05;;
21802;SDS011;18591;47.080;22.214;2022-09-21T11:15:55;43.65;;;21.35;;
21802;SDS011;18591;47.080;22.214;2022-09-21T11:20:24;35.85;;;16.00;;
21802;SDS011;18591;47.080;22.214;2022-09-21T11:22:37;31.25;;;15.60;;
21802;SDS011;18591;47.080;22.214;2022-09-21T11:24:51;35.33;;;17.88;;
21802;SDS011;18591;47.080;22.214;2022-09-21T11:27:04;34.45;;;19.08;;
21802;SDS011;18591;47.080;22.214;2022-09-21T11:36:53;56.88;;;31.30;;
21802;SDS011;18591;47.080;22.214;2022-09-21T11:39:19;42.97;;;24.48;;
21802;SDS011;18591;47.080;22.214;2022-09-21T11:41:58;21.77;;;11.73;;
21802;SDS011;18591;47.080;22.214;2022-09-21T11:53:50;71.88;;;36.92;;
21802;SDS011;18591;47.080;22.214;2022-09-21T11:56:22;70.85;;;35.75;;
21802;SDS011;18591;47.080;22.214;2022-09-21T12:01:03;64.70;;;33.22;;
21802;SDS011;18591;47.080;22.214;2022-09-21T12:03:20;61.50;;;30.60;;
21802;SDS011;18591;47.080;22.214;2022-09-21T12:08:19;19.45;;;11.38;;
21802;SDS011;18591;47.080;22.214;2022-09-21T12:15:41;10.18;;;6.25;;
21802;SDS011;18591;47.080;22.214;2022-09-21T12:17:56;8.55;;;5.60;;
21802;SDS011;18591;47.080;22.214;2022-09-21T12:22:30;12.05;;;7.70;;
21802;SDS011;18591;47.080;22.214;2022-09-21T12:24:44;17.58;;;10.90;;
21802;SDS011;18591;47.080;22.214;2022-09-21T12:26:53;17.20;;;9.13;;
21802;SDS011;18591;47.080;22.214;2022-09-21T12:29:01;13.52;;;8.52;;
21802;SDS011;18591;47.080;22.214;2022-09-21T12:31:17;10.48;;;6.88;;
21802;SDS011;18591;47.080;22.214;2022-09-21T12:34:12;13.32;;;7.05;;
21802;SDS011;18591;47.080;22.214;2022-09-21T12:38:20;11.82;;;6.50;;
21802;SDS011;18591;47.080;22.214;2022-09-21T12:45:54;6.53;;;4.80;;
21802;SDS011;18591;47.080;22.214;2022-09-21T12:48:10;4.55;;;3.63;;
21802;SDS011;18591;47.080;22.214;2022-09-21T12:50:31;5.38;;;2.92;;
21802;SDS011;18591;47.080;22.214;2022-09-21T12:52:45;4.72;;;2.70;;
21802;SDS011;18591;47.080;22.214;2022-09-21T12:57:06;3.00;;;2.47;;
21802;SDS011;18591;47.080;22.214;2022-09-21T13:02:11;2.83;;;2.28;;
21802;SDS011;18591;47.080;22.214;2022-09-21T13:09:02;16.13;;;10.55;;
21802;SDS011;18591;47.080;22.214;2022-09-21T13:11:11;33.10;;;20.17;;
21802;SDS011;18591;47.080;22.214;2022-09-21T13:13:16;40.17;;;24.67;;
21802;SDS011;18591;47.080;22.214;2022-09-21T13:15:46;31.13;;;18.80;;
21802;SDS011;18591;47.080;22.214;2022-09-21T13:17:56;11.35;;;7.45;;
21802;SDS011;18591;47.080;22.214;2022-09-21T13:20:04;7.15;;;4.90;;
21802;SDS011;18591;47.080;22.214;2022-09-21T13:24:24;14.52;;;7.95;;
21802;SDS011;18591;47.080;22.214;2022-09-21T13:26:32;12.25;;;6.60;;
21802;SDS011;18591;47.080;22.214;2022-09-21T13:33:38;3.03;;;2.83;;
21802;SDS011;18591;47.080;22.214;2022-09-21T13:40:32;2.55;;;2.22;;
21802;SDS011;18591;47.080;22.214;2022-09-21T13:44:40;5.38;;;4.88;;
21802;SDS011;18591;47.080;22.214;2022-09-21T13:46:48;6.00;;;5.50;;
21802;SDS011;18591;47.080;22.214;2022-09-21T13:48:56;6.35;;;5.00;;
21802;SDS011;18591;47.080;22.214;2022-09-21T13:51:00;6.32;;;5.68;;
21802;SDS011;18591;47.080;22.214;2022-09-21T13:55:27;6.18;;;5.57;;
21802;SDS011;18591;47.080;22.214;2022-09-21T13:57:43;4.18;;;3.85;;
21802;SDS011;18591;47.080;22.214;2022-09-21T13:59:58;4.80;;;4.38;;
21802;SDS011;18591;47.080;22.214;2022-09-21T14:04:36;4.07;;;3.38;;
21802;SDS011;18591;47.080;22.214;2022-09-21T14:06:44;4.03;;;3.47;;
21802;SDS011;18591;47.080;22.214;2022-09-21T14:08:52;3.20;;;2.90;;
21802;SDS011;18591;47.080;22.214;2022-09-21T14:11:14;3.30;;;3.00;;
21802;SDS011;18591;47.080;22.214;2022-09-21T14:13:29;2.33;;;2.10;;
21802;SDS011;18591;47.080;22.214;2022-09-21T14:15:36;1.65;;;1.55;;
21802;SDS011;18591;47.080;22.214;2022-09-21T14:17:40;1.25;;;1.15;;
21802;SDS011;18591;47.080;22.214;2022-09-21T14:24:22;1.17;;;0.95;;
21802;SDS011;18591;47.080;22.214;2022-09-21T14:28:47;1.52;;;1.13;;
21802;SDS011;18591;47.080;22.214;2022-09-21T14:30:54;0.80;;;0.60;;
21802;SDS011;18591;47.080;22.214;2022-09-21T14:35:05;3.63;;;1.80;;
21802;SDS011;18591;47.080;22.214;2022-09-21T14:37:34;7.22;;;4.40;;
21802;SDS011;18591;47.080;22.214;2022-09-21T14:39:41;9.90;;;6.90;;
21802;SDS011;18591;47.080;22.214;2022-09-21T14:41:47;15.40;;;8.25;;
21802;SDS011;18591;47.080;22.214;2022-09-21T14:43:54;13.32;;;8.70;;
21802;SDS011;18591;47.080;22.214;2022-09-21T14:46:22;39.22;;;16.85;;
21802;SDS011;18591;47.080;22.214;2022-09-21T14:51:00;64.40;;;25.88;;
21802;SDS011;18591;47.080;22.214;2022-09-21T14:58:49;43.80;;;19.35;;
21802;SDS011;18591;47.080;22.214;2022-09-21T15:05:35;44.67;;;23.98;;
21802;SDS011;18591;47.080;22.214;2022-09-21T15:07:44;51.95;;;28.23;;
21802;SDS011;18591;47.080;22.214;2022-09-21T15:13:04;18.50;;;11.63;;
21802;SDS011;18591;47.080;22.214;2022-09-21T15:17:51;18.55;;;12.48;;